Radiosonde details



Informationen :

Serial : Y1952526
Type : Vaisala RS41-SG
Date of production : 08.05.2026
Frequency : 405.5MHz
Launchsite : -
Nearest town : Coningsby, GB (2.3km)

Altitude (Max) : 28894m at 2026-09-01 00:55:26
Speed (Max) : 57km/h at altitude 15569m

Average speed : 18km/h
Average ascent rate : 5m/s
Average descent rate : -22m/s
Ascent rate (Max) : 6.8m/s
Descent rate (Max): -39.5m/s

First frame :
DM0DOS-11 at 2026-09-01 00:13:59 at altitude 15969m (OG: 15907m)
Last frame :
DM0DOS-11 at 2026-09-01 01:05:45 at altitude 15569m (OG: 15516m)

Flighttime : 51m46s
Ascent time : 41m27s
Descent time : 10m19s
Uptime : 2h15m25s
Killtimer : 8h20m18s

Distance (Straight line distance): 14km

Distance (Route):


Frames : 511


Measurement :

Temperature : -53.5°C
Humidity : 3.8%
Pressure : 0hPa


Vertical profile (SkewT) :


Elevation profile :



Receiving stations :


Receiver Frames First received Last received
DM0DOS-11 252 2026-09-01 00:13:59 2026-09-01 01:05:45
DJ2DS-15 118 2026-09-01 00:21:40 2026-09-01 01:03:51
BIOWL1-15 89 2026-09-01 00:26:09 2026-09-01 01:02:41
DB0UT-7 36 2026-09-01 00:33:07 2026-09-01 01:00:27
BIOWL9-15 16 2026-09-01 00:32:28 2026-09-01 01:03:00

Share per receiver :



All frames :


Receiver Date Latitude Longitude Direction Speed Altitude Climb Temperature Humidity Pressure Voltage Killtimer Uptime BKT XDATA
DM0DOS-112026-09-01 01:05:4553.12119-0.1994384°57km/h15569m-17.8m/s-53.5°C3.8%0hPa2.5V08:20:1802:15:2500:00:00
DM0DOS-112026-09-01 01:05:3453.12108-0.2016884°49km/h15745m-17.6m/s-53.3°C3.8%0hPa2.5V08:20:2802:15:1500:00:00
DM0DOS-112026-09-01 01:05:2353.12097-0.2038183°49km/h15913m-16.1m/s-53.3°C3.9%0hPa2.5V08:20:3802:15:0500:00:00
DM0DOS-112026-09-01 01:05:1253.12080-0.2059788°53km/h16082m-17.5m/s-52.4°C3.7%0hPa2.6V08:20:4802:14:5500:00:00
DM0DOS-112026-09-01 01:05:0553.12061-0.2080971°55km/h16255m-16.6m/s-51.7°C3.5%0hPa2.6V08:20:5802:14:4500:00:00
DM0DOS-112026-09-01 01:04:5253.12020-0.2103176°55km/h16428m-16.4m/s-51.4°C3.6%0hPa2.6V08:21:0802:14:3500:00:00
DM0DOS-112026-09-01 01:04:4553.11993-0.2123378°42km/h16591m-16.6m/s-50.5°C3.3%0hPa2.6V08:21:1802:14:2500:00:00
DM0DOS-112026-09-01 01:04:3253.11975-0.2139178°31km/h16765m-16.5m/s-49.7°C3.1%0hPa2.5V08:21:2802:14:1500:00:00
DM0DOS-112026-09-01 01:04:2653.11948-0.2152967°42km/h16947m-16.2m/s-49.8°C3.1%0hPa2.5V08:21:3802:14:0500:00:00
DJ2DS-152026-09-01 01:03:5153.11856-0.2210282°46km/h17502m-20.2m/s-50.8°C0.8%-1.0hPa2.5V00:00:0000:00:0000:00:00
DJ2DS-152026-09-01 01:03:4753.11851-0.2217788°37km/h17575m-20.1m/s-50.9°C3.3%0hPa2.5V08:22:0002:13:3200:00:00
DJ2DS-152026-09-01 01:03:2653.11822-0.2249371°33km/h17972m-20.1m/s-50.7°C3.3%0hPa2.5V00:00:0002:13:1100:00:00
DM0DOS-112026-09-01 01:03:1953.11804-0.2263380°37km/h18144m-19.8m/s-50.5°C3.3%0hPa2.5V08:22:4102:13:0200:00:00
DJ2DS-152026-09-01 01:03:1553.11802-0.2266084°33km/h18182m-20.1m/s-50.3°C0.8%-1.0hPa2.5V00:00:0000:00:0000:00:00
DM0DOS-112026-09-01 01:03:0853.11796-0.2277092°27km/h18366m-21.1m/s-50.7°C3.3%0hPa2.5V08:22:5202:12:5100:00:00
DJ2DS-152026-09-01 01:03:0653.11796-0.2277093°27km/h18366m-21.0m/s-50.7°C3.3%0hPa2.5V00:00:0002:12:5100:00:00
BIOWL9-152026-09-01 01:03:0053.11776-0.2296976°29km/h18733m-20.2m/s-50.5°C0.8%-1.0hPa2.5V00:00:0000:00:0000:00:00
DM0DOS-112026-09-01 01:02:5853.11793-0.2287676°27km/h18570m-19.1m/s-50.4°C3.2%0hPa2.5V08:23:0202:12:4100:00:00
DM0DOS-112026-09-01 01:02:4853.11771-0.2299575°31km/h18772m-20.8m/s-50.5°C3.3%0hPa2.6V08:23:1202:12:3100:00:00
BIOWL1-152026-09-01 01:02:4153.11759-0.2307975°29km/h18911m-20m/s-50.4°C0%0hPa2.5V08:23:5802:12:2400:00:00
DJ2DS-152026-09-01 01:02:3953.11759-0.2307974°27km/h18911m-20.0m/s-50.4°C0.8%-1.0hPa2.6V00:00:0000:00:0000:00:00
DM0DOS-112026-09-01 01:02:3853.11754-0.2310966°22km/h18973m-23.1m/s-50°C3.1%0hPa2.6V08:23:2202:12:2100:00:00
BIOWL1-152026-09-01 01:02:2953.11739-0.2316563°22km/h19128m-24.1m/s-50.7°C0%0hPa2.5V08:23:5802:12:1400:00:00
BIOWL1-152026-09-01 01:02:1953.11679-0.2336866°42km/h19479m-21.4m/s-50.9°C0%0hPa2.5V08:23:5802:11:5800:00:00
BIOWL1-152026-09-01 01:02:0853.11663-0.2344370°37km/h19584m-23m/s-50.3°C0%0hPa2.5V08:23:5802:11:5300:00:00
DJ2DS-152026-09-01 01:02:0653.11657-0.2346972°27km/h19632m-22.7m/s-50.2°C3.2%0hPa2.5V00:00:0002:11:5100:00:00
DM0DOS-112026-09-01 01:02:0053.11625-0.2357964°27km/h19854m-23.9m/s-50.6°C3.3%0hPa2.5V08:24:0202:11:4100:00:00
BIOWL1-152026-09-01 01:01:5753.11620-0.2360169°29km/h19901m-24.2m/s0°C0%0hPa2.5V18:12:1502:11:3900:00:00
DM0DOS-112026-09-01 01:01:5053.11601-0.2369365°22km/h20100m-21.4m/s-50.7°C3.3%0hPa2.5V08:24:1302:11:3000:00:00
DJ2DS-152026-09-01 01:01:4653.11603-0.2368570°20km/h20078m-22.1m/s-50.6°C3.3%0hPa2.5V00:00:0002:11:3100:00:00
DM0DOS-112026-09-01 01:01:4053.11570-0.2374232°18km/h20327m-21.5m/s-50.6°C3.1%0hPa2.6V08:24:2302:11:2000:00:00
DM0DOS-112026-09-01 01:01:3053.11536-0.2381370°26km/h20547m-21.6m/s-50.9°C3.2%0hPa2.6V08:24:3302:11:1000:00:00
DJ2DS-152026-09-01 01:01:2753.11539-0.2380463°24km/h20524m-23.2m/s-50.9°C0.7%-1.0hPa2.5V00:00:0000:00:0000:00:00
DJ2DS-152026-09-01 01:01:2653.11539-0.2380364°26km/h20525m-23.1m/s-50.8°C3.2%0hPa2.5V00:00:0002:11:1100:00:00
DM0DOS-112026-09-01 01:01:2053.11524-0.2392985°29km/h20768m-21.9m/s-52°C3.5%0hPa2.5V08:24:4302:11:0000:00:00
DM0DOS-112026-09-01 01:01:1053.11519-0.2401661°15km/h21005m-22.6m/s-51.3°C3.3%0hPa2.5V08:24:5302:10:5000:00:00
DJ2DS-152026-09-01 01:01:0653.11520-0.2401164°24km/h20981m-25.5m/s-51.2°C3.3%0hPa2.5V00:00:0002:10:5100:00:00
DM0DOS-112026-09-01 01:00:5053.11452-0.2412459°27km/h21366m-20.4m/s-52.3°C3.6%0hPa2.5V08:25:0902:10:3400:00:00
DJ2DS-152026-09-01 01:00:4653.11444-0.2415871°18km/h21434m-24.5m/s-52.3°C3.6%0hPa2.6V08:25:0002:10:3100:00:00
DM0DOS-112026-09-01 01:00:4053.11439-0.2423591°24km/h21598m-23.2m/s-52.4°C3.7%0hPa2.6V08:25:1902:10:2400:00:00
BIOWL1-152026-09-01 01:00:3653.11445-0.2428319°11km/h22178m-26m/s-51.6°C0%0hPa2.5V08:27:2202:09:5900:00:00
DM0DOS-112026-09-01 01:00:3453.11448-0.24299155°5km/h21847m-24.3m/s-51.9°C3.6%0hPa2.6V08:25:3002:10:1300:00:00
DB0UT-72026-09-01 01:00:2753.11449-0.24300163°13km/h21872m-24.3m/s-51.7°C3.5%0hPa2.6V00:00:0002:10:1200:00:00
DJ2DS-152026-09-01 01:00:2653.11451-0.24300204°11km/h21896m-23.5m/s-51.4°C3.4%0hPa2.6V00:00:0002:10:1100:00:00
DM0DOS-112026-09-01 01:00:2353.11450-0.24283341°5km/h22106m-22.2m/s-51.8°C3.6%0hPa2.6V08:25:4102:10:0200:00:00
BIOWL1-152026-09-01 01:00:1353.11425-0.2430135°20km/h22332m-24.3m/s-51.9°C0.1%0hPa2.5V08:27:2202:09:5300:00:00
DM0DOS-112026-09-01 01:00:1253.11425-0.2430135°20km/h22332m-24.2m/s-51.9°C3.6%0hPa2.5V08:25:5002:09:5300:00:00
DJ2DS-152026-09-01 01:00:0653.11416-0.2431140°15km/h22375m-21.1m/s-51.9°C3.6%0hPa2.6V00:00:0002:09:5100:00:00
DM0DOS-112026-09-01 01:00:0253.11390-0.2436667°16km/h22577m-22.8m/s-51.3°C3.5%0hPa2.6V08:26:0002:09:4300:00:00
BIOWL1-152026-09-01 00:59:5853.11386-0.2440179°9km/h22731m-23.5m/s-51.1°C0%0hPa2.5V08:27:2202:09:3600:00:00
BIOWL9-152026-09-01 00:59:5453.11387-0.2438980°13km/h22666m-20.6m/s-51.3°C0.7%-1.0hPa2.6V00:00:0000:00:0000:00:00
DM0DOS-112026-09-01 00:59:5153.11380-0.2441340°5km/h22830m-24.5m/s-50.9°C3.4%0hPa2.6V08:26:1102:09:3200:00:00
BIOWL1-152026-09-01 00:59:4353.11371-0.2442225°13km/h22920m-21.7m/s-50.7°C0%0hPa2.5V08:27:2202:09:2800:00:00
DM0DOS-112026-09-01 00:59:4053.11355-0.2443844°13km/h23067m-26.8m/s-50.8°C3.3%0hPa2.5V08:26:2102:09:2200:00:00
DM0DOS-112026-09-01 00:59:3053.11357-0.24479126°13km/h23284m-20.8m/s-50.1°C3.2%0hPa2.5V08:26:3102:09:1200:00:00
DB0UT-72026-09-01 00:59:2753.11356-0.24479127°9km/h23284m-20.7m/s-50.1°C3.2%0hPa2.6V00:00:0002:09:1200:00:00
DJ2DS-152026-09-01 00:59:2653.11358-0.24484129°13km/h23306m-21.5m/s-50.1°C3.2%0hPa2.6V00:00:0002:09:1100:00:00
DM0DOS-112026-09-01 00:59:2053.11370-0.24543106°13km/h23500m-20.8m/s-50.6°C3.3%0hPa2.6V08:26:4102:09:0200:00:00
DM0DOS-112026-09-01 00:59:1053.11384-0.24581102°4km/h23679m-19.1m/s-50.6°C3.3%0hPa2.6V08:26:5102:08:5200:00:00
DJ2DS-152026-09-01 00:59:0653.11384-0.24582167°5km/h23700m-22.9m/s-50.5°C3.3%0hPa2.5V00:00:0002:08:5100:00:00
DJ2DS-152026-09-01 00:59:0253.11388-0.24577250°5km/h23797m-23.3m/s-50.6°C0.7%-1.0hPa2.5V00:00:0000:00:0000:00:00
DM0DOS-112026-09-01 00:59:0053.11391-0.24570227°2km/h23912m-17.9m/s-50.7°C3.3%0hPa2.5V08:27:0202:08:4100:00:00
BIOWL1-152026-09-01 00:58:5653.11391-0.24570227°2km/h23912m-17.9m/s-50.7°C0%0hPa2.5V08:27:2202:08:4100:00:00
BIOWL9-152026-09-01 00:58:5253.11392-0.24567256°0km/h23985m-17.5m/s-50.6°C0.7%-1.0hPa2.5V00:00:0000:00:0000:00:00
DM0DOS-112026-09-01 00:58:5053.11389-0.24549303°16km/h24093m-16.9m/s-50.2°C3.3%0hPa2.5V08:27:1202:08:3100:00:00
BIOWL1-152026-09-01 00:58:4653.11367-0.24515352°11km/h24266m-19.5m/s0°C0%0hPa2.6V08:27:2202:08:2200:00:00
DJ2DS-152026-09-01 00:58:4653.11389-0.24549304°11km/h24094m-16.8m/s-50.2°C3.3%0hPa2.5V00:00:0002:08:3100:00:00
DM0DOS-112026-09-01 00:58:3953.11364-0.24514347°9km/h24286m-20m/s-50°C3.2%0hPa2.6V08:27:2202:08:2100:00:00
BIOWL1-152026-09-01 00:58:3453.11360-0.24512348°11km/h24324m-17.9m/s0°C0%0hPa2.5V18:12:1502:08:1900:00:00
DM0DOS-112026-09-01 00:58:2953.11358-0.24499239°9km/h24500m-19.7m/s-49.9°C3.1%0hPa2.5V08:27:3202:08:1100:00:00
BIOWL1-152026-09-01 00:58:2453.11360-0.24491263°9km/h24539m-21.4m/s0°C0%0hPa2.6V18:12:1502:08:0900:00:00
BIOWL9-152026-09-01 00:58:2153.11358-0.24474304°11km/h24637m-18.8m/s-50.2°C0.7%-1.0hPa2.5V00:00:0000:00:0000:00:00
DM0DOS-112026-09-01 00:58:1953.11351-0.24460317°16km/h24693m-17.9m/s-50.2°C3.2%0hPa2.5V08:27:4202:08:0100:00:00
DM0DOS-112026-09-01 00:58:0953.11335-0.24428315°5km/h24879m-25.1m/s-50.3°C3.3%0hPa2.6V08:27:5202:07:5100:00:00
DB0UT-72026-09-01 00:58:0753.11336-0.24429287°11km/h24856m-22.2m/s-50.2°C3.3%0hPa2.6V00:00:0002:07:5200:00:00
DJ2DS-152026-09-01 00:58:0653.11335-0.24427316°7km/h24880m-25.1m/s-50.3°C3.3%0hPa2.5V00:00:0002:07:5100:00:00
DM0DOS-112026-09-01 00:57:5853.11329-0.24415335°5km/h25112m-30.6m/s-50.1°C3.2%0hPa2.5V08:28:0202:07:4100:00:00
DM0DOS-112026-09-01 00:57:5153.11296-0.2442124°18km/h25389m-20.1m/s-49.8°C3.2%0hPa2.5V08:28:1302:07:3000:00:00
DJ2DS-152026-09-01 00:57:4653.11301-0.2441821°18km/h25369m-20.9m/s-49.8°C3.3%0hPa2.5V08:28:0002:07:3100:00:00
DM0DOS-112026-09-01 00:57:4053.11268-0.2445166°13km/h25608m-25.4m/s-49.3°C3%0hPa2.5V08:28:2302:07:2000:00:00
DB0UT-72026-09-01 00:57:3753.11272-0.2444526°11km/h25567m-19.4m/s-49.2°C3.0%0hPa2.6V00:00:0000:00:0000:00:00
DM0DOS-112026-09-01 00:57:3053.11277-0.24534120°16km/h25789m-12.4m/s-50.4°C3.4%0hPa2.6V08:28:3302:07:1000:00:00
DJ2DS-152026-09-01 00:57:2653.11275-0.24528119°7km/h25776m-13.4m/s-50.3°C3.4%0hPa2.5V00:00:0002:07:1100:00:00
DM0DOS-112026-09-01 00:57:1953.11286-0.2455619°4km/h25931m-14.2m/s-50°C3.4%0hPa2.5V08:28:4302:07:0000:00:00
DJ2DS-152026-09-01 00:57:1453.11284-0.24557352°2km/h25945m-12.5m/s-50.0°C0.7%-1.0hPa2.6V00:00:0000:00:0000:00:00
BIOWL1-152026-09-01 00:56:5453.11306-0.24524242°15km/h26342m-28.7m/s-48.6°C0%0hPa2.6V08:29:0402:06:3900:00:00
DM0DOS-112026-09-01 00:56:5353.11313-0.24505248°9km/h26453m-31.2m/s-48.2°C2.9%0hPa2.5V08:29:0802:06:3500:00:00
BIOWL1-152026-09-01 00:56:4453.11315-0.24483284°7km/h26649m-34.4m/s-48.1°C0%0hPa2.5V18:12:1502:06:2900:00:00
DM0DOS-112026-09-01 00:56:4253.11313-0.24471315°7km/h26770m-25.4m/s-48.7°C3%0hPa2.5V08:29:1802:06:2500:00:00
BIOWL1-152026-09-01 00:56:3453.11300-0.24457350°7km/h26959m-27.3m/s-49.1°C0%0hPa2.5V18:12:1502:06:1800:00:00
DM0DOS-112026-09-01 00:56:3253.11293-0.2445812°5km/h27049m-30.6m/s-48.9°C3.1%0hPa2.6V08:29:2802:06:1500:00:00
DJ2DS-152026-09-01 00:56:2653.11286-0.2446444°11km/h27167m-25.6m/s-49.3°C3.3%0hPa2.6V00:00:0002:06:1100:00:00
DM0DOS-112026-09-01 00:56:2253.11283-0.24465252°5km/h27331m-30.2m/s-49.4°C3.2%0hPa2.6V08:29:3802:06:0500:00:00
BIOWL1-152026-09-01 00:56:1853.11287-0.24450248°15km/h27458m-30.4m/s-49.4°C0%0hPa2.5V18:12:1502:06:0100:00:00
BIOWL9-152026-09-01 00:56:1753.11287-0.24450247°13km/h27458m-30.4m/s-49.4°C0.7%-1.0hPa2.5V00:00:0000:00:0000:00:00
DM0DOS-112026-09-01 00:56:1153.11293-0.24415266°16km/h27637m-28.4m/s-48.7°C3.2%0hPa2.5V08:29:4802:05:5500:00:00
BIOWL1-152026-09-01 00:56:0753.11288-0.24390317°16km/h27744m-27.3m/s0°C0%0hPa2.5V18:12:1502:05:5100:00:00
DJ2DS-152026-09-01 00:56:0653.11288-0.24390317°18km/h27745m-27.3m/s-48.5°C3.2%0hPa2.5V00:00:0002:05:5100:00:00
DM0DOS-112026-09-01 00:56:0153.11255-0.2438518°27km/h27905m-28.4m/s-48.5°C3.1%0hPa2.5V08:30:0002:05:4500:00:00
DM0DOS-112026-09-01 00:55:5653.11222-0.24391259°11km/h28182m-28.7m/s-47.5°C2.9%0hPa2.6V08:30:0002:05:3500:00:00
DM0DOS-112026-09-01 00:55:4553.11237-0.24353220°13km/h28546m-39.5m/s-47.3°C2.7%0hPa2.6V08:30:0002:05:2500:00:00
DB0UT-72026-09-01 00:55:3753.11243-0.24344226°11km/h28659m-36.9m/s-47.6°C2.8%0hPa2.5V00:00:0000:00:0000:00:00
DM0DOS-112026-09-01 00:55:3053.11248-0.24325325°5km/h28880m-19.7m/s-48°C3%0hPa2.5V08:30:0002:05:1500:00:00
BIOWL1-152026-09-01 00:55:3053.11248-0.24325325°5km/h28880m-19.7m/s0°C0%0hPa2.5V18:12:1502:05:1500:00:00
DJ2DS-152026-09-01 00:55:2653.11243-0.24321360°13km/h28894m6.2m/s-48.1°C3.0%0hPa2.5V00:00:0002:05:1100:00:00
DM0DOS-112026-09-01 00:55:2553.11237-0.24298258°18km/h28861m5.8m/s-48.1°C3%0hPa2.5V08:30:0002:05:0500:00:00
BIOWL1-152026-09-01 00:55:1953.11238-0.24291250°16km/h28855m6.1m/s0°C0%0hPa2.5V18:12:1502:05:0400:00:00
DM0DOS-112026-09-01 00:55:1553.11246-0.24249238°7km/h28805m5.5m/s-47.9°C3%0hPa2.5V08:30:0002:04:5500:00:00
BIOWL1-152026-09-01 00:55:0753.11252-0.24235235°20km/h28787m4.7m/s0°C0%0hPa2.5V18:12:1502:04:5200:00:00
DB0UT-72026-09-01 00:55:0753.11252-0.24235236°13km/h28788m4.7m/s-47.9°C3.0%0hPa2.5V00:00:0002:04:5200:00:00
DJ2DS-152026-09-01 00:55:0653.11255-0.24228232°11km/h28783m4.0m/s-48.0°C3.0%0hPa2.6V00:00:0002:04:5100:00:00
DM0DOS-112026-09-01 00:55:0453.11266-0.24208275°7km/h28748m6.2m/s-48.1°C3%0hPa2.6V08:30:0002:04:4500:00:00
BIOWL1-152026-09-01 00:54:5953.11266-0.24199242°7km/h28731m6.6m/s0°C0%0hPa2.5V18:12:1502:04:4200:00:00
DM0DOS-112026-09-01 00:54:5453.11284-0.24166233°15km/h28691m6.4m/s-48.1°C3%0hPa2.5V08:30:0002:04:3500:00:00
DJ2DS-152026-09-01 00:54:5053.11284-0.24166233°13km/h28692m6.4m/s-48.1°C0.6%-1.0hPa2.5V00:00:0000:00:0000:00:00
DJ2DS-152026-09-01 00:54:4653.11290-0.24155243°11km/h28668m6.2m/s-48.0°C3.0%0hPa2.5V00:00:0002:04:3108:30:00
DM0DOS-112026-09-01 00:54:4453.11303-0.24138208°18km/h28633m6.5m/s-47.9°C3%0hPa2.5V08:30:0002:04:2500:00:00
DB0UT-72026-09-01 00:54:3553.11323-0.24120186°11km/h28604m5.0m/s-47.8°C3.0%0hPa2.6V00:00:0000:00:0000:00:00
DM0DOS-112026-09-01 00:54:3353.11327-0.24113291°5km/h28576m4.9m/s-47.7°C2.9%0hPa2.6V08:30:0002:04:1500:00:00
DJ2DS-152026-09-01 00:54:2653.11330-0.24112174°13km/h28553m5.6m/s-47.6°C2.9%0hPa2.6V00:00:0002:04:1100:00:00
DM0DOS-112026-09-01 00:54:2353.11359-0.24096196°20km/h28516m5.2m/s-47.7°C2.9%0hPa2.6V08:30:0002:04:0500:00:00
DJ2DS-152026-09-01 00:54:1453.11365-0.2408752°5km/h28474m5.3m/s-47.8°C0.6%-1.0hPa2.5V00:00:0000:00:0000:00:00
DM0DOS-112026-09-01 00:54:1153.11365-0.24088201°7km/h28456m5.4m/s-47.9°C3%0hPa2.5V08:30:0002:03:5500:00:00
DJ2DS-152026-09-01 00:54:0653.11380-0.24083202°9km/h28432m6.2m/s-47.8°C3.0%0hPa2.5V00:00:0002:03:5100:00:00
DB0UT-72026-09-01 00:54:0553.11384-0.24079215°9km/h28426m6.0m/s-47.8°C3.0%0hPa2.5V00:00:0002:03:5000:00:00
DM0DOS-112026-09-01 00:54:0453.11393-0.2406666°4km/h28397m5.4m/s-47.7°C2.9%0hPa2.5V08:30:0002:03:4500:00:00
DM0DOS-112026-09-01 00:53:5153.11398-0.24073223°9km/h28337m5.8m/s-47.8°C2.9%0hPa2.5V08:30:0002:03:3500:00:00
DJ2DS-152026-09-01 00:53:4653.11399-0.24062332°11km/h28314m5.8m/s-47.9°C3.0%0hPa2.6V00:00:0002:03:3100:00:00
DM0DOS-112026-09-01 00:53:4453.11376-0.2406718km/h28279m5.7m/s-48.1°C3%0hPa2.6V08:30:0002:03:2500:00:00
DJ2DS-152026-09-01 00:53:3853.11369-0.2407357°4km/h28260m5.3m/s-48.1°C0.6%-1.0hPa2.6V00:00:0000:00:0000:00:00
DB0UT-72026-09-01 00:53:3553.11368-0.24073299°11km/h28249m6.5m/s-48.0°C3.1%0hPa2.6V00:00:0000:00:0000:00:00
DM0DOS-112026-09-01 00:53:3453.11362-0.2406429°7km/h28219m5.6m/s-47.8°C3%0hPa2.6V08:30:0002:03:1500:00:00
DJ2DS-152026-09-01 00:53:2653.11348-0.2407415°13km/h28196m4.8m/s-47.6°C2.9%0hPa2.5V00:00:0002:03:1100:00:00
DM0DOS-112026-09-01 00:53:2253.11336-0.24078340°11km/h28160m6.5m/s-47.5°C2.9%0hPa2.5V08:30:0002:03:0500:00:00
DM0DOS-112026-09-01 00:53:1253.11293-0.2408316°13km/h28099m6.3m/s-47.8°C2.9%0hPa2.5V08:30:0002:02:5500:00:00
DJ2DS-152026-09-01 00:53:0653.11283-0.24081339°22km/h28076m5.8m/s-47.9°C2.9%0hPa2.6V00:00:0002:02:5100:00:00
DB0UT-72026-09-01 00:53:0553.11279-0.24079344°20km/h28071m5.0m/s-48.0°C3.0%0hPa2.6V00:00:0002:02:5000:00:00
DM0DOS-112026-09-01 00:53:0153.11255-0.2408827°27km/h28041m5.9m/s-48.1°C2.9%0hPa2.6V08:30:0002:02:4500:00:00
DM0DOS-112026-09-01 00:52:5053.11200-0.24117347°22km/h27981m5.2m/s-48.2°C3%0hPa2.6V08:30:0002:02:3500:00:00
DJ2DS-152026-09-01 00:52:4653.11178-0.2411915°16km/h27958m5.4m/s-48.3°C3.0%0hPa2.6V00:00:0002:02:3100:00:00
DM0DOS-112026-09-01 00:52:4553.11144-0.24127357°9km/h27922m6.2m/s-48.6°C3%0hPa2.6V08:30:0002:02:2500:00:00
BIOWL9-152026-09-01 00:52:3953.11141-0.24124306°7km/h27911m6.8m/s-48.7°C0.6%-1.0hPa2.5V00:00:0000:00:0000:00:00
DM0DOS-112026-09-01 00:52:3453.11117-0.2410818km/h27863m6.8m/s-48.7°C3.1%0hPa2.5V08:30:0002:02:1500:00:00
BIOWL1-152026-09-01 00:52:2853.11107-0.24107350°18km/h27851m5.3m/s-48.6°C0%0hPa2.6V18:12:1502:02:1300:00:00
DJ2DS-152026-09-01 00:52:2653.11097-0.24100316°13km/h27834m4.9m/s-48.6°C0.6%-1.0hPa2.5V00:00:0000:00:0000:00:00
DM0DOS-112026-09-01 00:52:2453.11078-0.24066314°24km/h27804m6.1m/s-48.5°C3%0hPa2.5V08:30:0002:02:0500:00:00
DM0DOS-112026-09-01 00:52:1453.11050-0.24030292°15km/h27747m5.8m/s-48.6°C3.1%0hPa2.5V08:30:0002:01:5500:00:00
BIOWL9-152026-09-01 00:52:0853.11038-0.24008320°15km/h27724m6.2m/s-48.5°C0.6%-1.0hPa2.6V00:00:0000:00:0000:00:00
DJ2DS-152026-09-01 00:52:0653.11038-0.24008321°13km/h27724m6.2m/s-48.5°C3.0%0hPa2.6V00:00:0002:01:5100:00:00
DM0DOS-112026-09-01 00:52:0453.11026-0.23994306°9km/h27689m4.8m/s-48.6°C3.1%0hPa2.6V08:30:0002:01:4500:00:00
DM0DOS-112026-09-01 00:51:5353.11027-0.23945262°15km/h27633m5.9m/s-48.6°C3%0hPa2.6V08:30:0002:01:3500:00:00
BIOWL1-152026-09-01 00:51:5353.11027-0.23951281°15km/h27639m6.3m/s-48.6°C0%0hPa2.5V18:12:1502:01:3600:00:00
DJ2DS-152026-09-01 00:51:4553.11032-0.23910258°16km/h27604m5.4m/s-48.6°C3.0%0hPa2.6V00:00:0002:01:3008:30:00
DM0DOS-112026-09-01 00:51:4353.11041-0.23876259°11km/h27573m5.8m/s-48.7°C3%0hPa2.5V08:30:0002:01:2500:00:00
BIOWL1-152026-09-01 00:51:4153.11046-0.23860216°16km/h27552m5.6m/s-48.7°C0%0hPa2.5V18:12:1502:01:2100:00:00
BIOWL9-152026-09-01 00:51:3753.11043-0.23864225°11km/h27558m6.5m/s-48.7°C0.6%-1.0hPa2.5V00:00:0000:00:0000:00:00
DB0UT-72026-09-01 00:51:3453.11054-0.23850220°13km/h27542m5.4m/s-48.7°C3.0%0hPa2.5V00:00:0000:00:0000:00:00
DM0DOS-112026-09-01 00:51:3353.11064-0.23827247°13km/h27520m4.9m/s-49°C3.1%0hPa2.5V08:30:0002:01:1500:00:00
BIOWL1-152026-09-01 00:51:2853.11073-0.23803246°22km/h27497m6.6m/s-49.1°C0%0hPa2.5V18:12:1502:01:1100:00:00
DJ2DS-152026-09-01 00:51:2553.11074-0.23794256°11km/h27491m5.8m/s-49.1°C3.1%0hPa2.6V00:00:0002:01:1000:00:00
DM0DOS-112026-09-01 00:51:2353.11083-0.23762209°7km/h27463m5.9m/s-49.3°C3.1%0hPa2.6V08:30:0002:01:0500:00:00
BIOWL1-152026-09-01 00:51:1553.11087-0.23763156°7km/h27434m6.3m/s-49.4°C0%0hPa2.6V18:12:1502:01:0000:00:00
DM0DOS-112026-09-01 00:51:1353.11094-0.23750272°15km/h27407m4.6m/s-49.5°C3.2%0hPa2.6V08:30:0002:00:5500:00:00
BIOWL1-152026-09-01 00:51:0753.11095-0.23733171°4km/h27339m5.3m/s-49.5°C0%0hPa2.6V18:12:1502:00:4300:00:00
BIOWL9-152026-09-01 00:51:0653.11095-0.23734222°2km/h27385m5.5m/s-49.7°C0.7%-1.0hPa2.6V00:00:0000:00:0000:00:00
DJ2DS-152026-09-01 00:51:0553.11095-0.23733258°5km/h27380m5.5m/s-49.6°C3.2%0hPa2.6V00:00:0002:00:5000:00:00
DB0UT-72026-09-01 00:51:0453.11095-0.23732326°7km/h27374m6.5m/s-49.6°C3.2%0hPa2.6V00:00:0002:00:4900:00:00
DM0DOS-112026-09-01 00:51:0253.11094-0.23732152°4km/h27350m6.2m/s-49.6°C3.2%0hPa2.6V08:30:0002:00:4500:00:00
BIOWL1-152026-09-01 00:50:5253.11089-0.2373864°11km/h27305m5.2m/s-49.3°C0%0hPa2.5V18:12:1502:00:3700:00:00
DM0DOS-112026-09-01 00:50:5153.11086-0.2374649°13km/h27294m6.3m/s-49.3°C3.2%0hPa2.5V08:30:0002:00:3500:00:00
BIOWL1-152026-09-01 00:50:4253.11073-0.23757354°11km/h27243m5.1m/s-49.4°C0%0hPa2.5V18:12:1502:00:2600:00:00
DM0DOS-112026-09-01 00:50:4153.11071-0.2375711km/h27238m5.9m/s-49.4°C3.2%0hPa2.5V08:30:0002:00:2500:00:00
DJ2DS-152026-09-01 00:50:3753.11063-0.2376233°13km/h27221m6.2m/s-49.3°C0.7%-1.0hPa2.5V00:00:0000:00:0000:00:00
BIOWL9-152026-09-01 00:50:3553.11057-0.2376934°16km/h27209m5.4m/s-49.3°C0.7%-1.0hPa2.5V00:00:0000:00:0000:00:00
DB0UT-72026-09-01 00:50:3453.11054-0.2377342°13km/h27203m5.7m/s-49.3°C3.2%0hPa2.5V00:00:0000:00:0000:00:00
DM0DOS-112026-09-01 00:50:3153.11046-0.2378820°7km/h27180m6.7m/s-49.3°C3.2%0hPa2.5V08:30:0002:00:1500:00:00
BIOWL1-152026-09-01 00:50:3053.11039-0.23784314°4km/h27157m6.1m/s-49.3°C0%0hPa2.6V18:12:1502:00:1100:00:00
DM0DOS-112026-09-01 00:50:2653.11029-0.2378919°16km/h27124m5.5m/s-49.2°C3.2%0hPa2.5V08:30:0002:00:0500:00:00
DJ2DS-152026-09-01 00:50:2553.11039-0.23783214°15km/h27152m4.9m/s-49.3°C3.2%0hPa2.6V00:00:0002:00:1000:00:00
DM0DOS-112026-09-01 00:50:1253.10992-0.23790351°15km/h27068m6.1m/s-49°C3.1%0hPa2.6V08:30:0001:59:5500:00:00
DM0DOS-112026-09-01 00:50:0553.10948-0.23804357°11km/h27011m5.2m/s-49.2°C3.2%0hPa2.5V08:30:0001:59:4500:00:00
DJ2DS-152026-09-01 00:50:0553.10970-0.2379725°15km/h27040m4.8m/s-49.0°C3.1%0hPa2.5V00:00:0001:59:5000:00:00
DB0UT-72026-09-01 00:50:0453.10965-0.2380117°15km/h27035m6.3m/s-49.0°C3.1%0hPa2.5V00:00:0001:59:4900:00:00
DJ2DS-152026-09-01 00:50:0153.10951-0.2380413km/h27017m6.5m/s-49.2°C0.7%-1.0hPa2.5V00:00:0000:00:0000:00:00
DM0DOS-112026-09-01 00:49:5253.10915-0.23791356°20km/h26954m4.6m/s-49.1°C3.2%0hPa2.5V08:30:0001:59:3500:00:00
DJ2DS-152026-09-01 00:49:4553.10897-0.23791353°13km/h26927m6.0m/s-49.2°C3.2%0hPa2.5V00:00:0001:59:3000:00:00
DM0DOS-112026-09-01 00:49:4153.10881-0.23781313°7km/h26897m6m/s-49.1°C3.2%0hPa2.5V08:30:0001:59:2500:00:00
DM0DOS-112026-09-01 00:49:3553.10865-0.23741337°9km/h26841m6.5m/s-48.9°C3.2%0hPa2.6V08:30:0001:59:1500:00:00
BIOWL1-152026-09-01 00:49:3053.10846-0.23708295°15km/h26786m6.3m/s-48.8°C0%0hPa2.6V18:12:1501:59:0500:00:00
DJ2DS-152026-09-01 00:49:2553.10854-0.23732325°11km/h26813m5.4m/s-48.9°C3.2%0hPa2.6V00:00:0001:59:1000:00:00
DM0DOS-112026-09-01 00:49:2153.10846-0.23708295°15km/h26786m6.3m/s-48.8°C3.2%0hPa2.6V08:30:0001:59:0500:00:00
DM0DOS-112026-09-01 00:49:1453.10831-0.23674288°11km/h26729m6.3m/s-48.5°C3.1%0hPa2.5V08:30:0001:58:5500:00:00
BIOWL1-152026-09-01 00:49:0953.10828-0.23661278°9km/h26711m6.4m/s-48.5°C0%0hPa2.5V18:12:1501:58:5200:00:00
DJ2DS-152026-09-01 00:49:0553.10827-0.23655301°9km/h26701m4.9m/s-48.4°C3.1%0hPa2.6V00:00:0001:58:5000:00:00
DB0UT-72026-09-01 00:49:0453.10826-0.23653318°11km/h26696m6.3m/s-48.4°C3.1%0hPa2.6V00:00:0001:58:4900:00:00
DM0DOS-112026-09-01 00:49:0353.10819-0.23644306°4km/h26672m5.3m/s-48.4°C3.1%0hPa2.5V08:30:0001:58:4500:00:00
BIOWL1-152026-09-01 00:49:0153.10819-0.23642261°5km/h26667m4.4m/s-48.4°C0%0hPa2.6V18:12:1501:58:4400:00:00
DM0DOS-112026-09-01 00:48:5353.10821-0.23601269°9km/h26617m6.4m/s-48.2°C3%0hPa2.5V08:30:0001:58:3500:00:00
BIOWL1-152026-09-01 00:48:4953.10821-0.23588248°9km/h26602m6.1m/s-48.2°C0%0hPa2.6V18:12:1501:58:3200:00:00
DJ2DS-152026-09-01 00:48:4553.10825-0.23582211°15km/h26590m5.5m/s-48.2°C3.0%0hPa2.5V00:00:0001:58:3008:30:00
DM0DOS-112026-09-01 00:48:4253.10838-0.23554245°16km/h26561m6.5m/s-48.2°C3%0hPa2.5V08:30:0001:58:2500:00:00
BIOWL1-152026-09-01 00:48:3753.10840-0.23533280°15km/h26538m5.8m/s-48.2°C0%0hPa2.6V18:12:1501:58:2100:00:00
DM0DOS-112026-09-01 00:48:3553.10851-0.23504228°20km/h26504m6.1m/s-48.1°C3%0hPa2.5V08:30:0001:58:1500:00:00
BIOWL1-152026-09-01 00:48:2653.10860-0.23474270°11km/h26478m4.4m/s0°C0%0hPa2.6V18:12:1501:58:1000:00:00
DM0DOS-112026-09-01 00:48:2553.10854-0.23438219°7km/h26439m5m/s-48.4°C3%0hPa2.5V08:30:0001:58:0300:00:00
DJ2DS-152026-09-01 00:48:2453.10859-0.23469286°13km/h26473m6.3m/s-48.2°C3.0%0hPa2.5V00:00:0001:58:0900:00:00
BIOWL1-152026-09-01 00:48:1753.10868-0.23398281°15km/h26373m6.2m/s0°C0%0hPa2.5V18:12:1501:57:5100:00:00
BIOWL1-152026-09-01 00:48:1053.10868-0.23386253°7km/h26356m6.1m/s0°C0%0hPa2.5V18:12:1501:57:4800:00:00
DJ2DS-152026-09-01 00:48:0453.10868-0.23389261°11km/h26362m5.6m/s-48.7°C3.1%0hPa2.5V00:00:0001:57:4900:00:00
DM0DOS-112026-09-01 00:48:0353.10870-0.23378225°5km/h26339m5.5m/s-48.8°C3.1%0hPa2.5V08:30:0001:57:4500:00:00
BIOWL9-152026-09-01 00:48:0053.10870-0.23378225°4km/h26339m5.5m/s-48.8°C-1.0%-1.0hPa2.5V00:00:0000:00:0000:00:00
DM0DOS-112026-09-01 00:47:5353.10886-0.23340231°11km/h26282m6.3m/s-48.8°C3.1%0hPa2.5V08:30:0001:57:3500:00:00
BIOWL1-152026-09-01 00:47:5253.10884-0.23344228°13km/h26288m5.3m/s0°C0%0hPa2.5V18:12:1501:57:3600:00:00
BIOWL1-152026-09-01 00:47:4153.10903-0.23295289°11km/h26203m5m/s0°C0%0hPa2.6V18:12:1501:57:2100:00:00
DJ2DS-152026-09-01 00:47:3753.10904-0.23299307°9km/h26209m6.2m/s-48.7°C0.6%-1.0hPa2.6V00:00:0000:00:0000:00:00
DM0DOS-112026-09-01 00:47:3553.10923-0.23284192°24km/h26168m5.3m/s-48.7°C3%0hPa2.6V08:30:0001:57:1500:00:00
BIOWL1-152026-09-01 00:47:2653.10938-0.23274290°5km/h26135m6.4m/s0°C0%0hPa2.5V18:12:1501:57:0900:00:00
DJ2DS-152026-09-01 00:47:2453.10938-0.23274291°7km/h26136m6.3m/s-48.7°C3.0%0hPa2.6V00:00:0001:57:0900:00:00
DM0DOS-112026-09-01 00:47:2353.10938-0.23267148°5km/h26114m6.2m/s-49°C3.1%0hPa2.6V08:30:0001:57:0500:00:00
BIOWL1-152026-09-01 00:47:1553.10953-0.23277185°13km/h26087m4.6m/s0°C0%0hPa2.6V18:12:1501:57:0000:00:00
DM0DOS-112026-09-01 00:47:1153.10963-0.23279138°2km/h26061m5.5m/s-49.5°C3.1%0hPa2.5V08:30:0001:56:5500:00:00
DM0DOS-112026-09-01 00:47:0553.10962-0.23282158°9km/h26002m6.5m/s-49.7°C3.2%0hPa2.5V08:30:0001:56:4500:00:00
DJ2DS-152026-09-01 00:47:0453.10958-0.2328070°5km/h26026m5.1m/s-49.7°C3.2%0hPa2.5V00:00:0001:56:4900:00:00
DJ2DS-152026-09-01 00:47:0153.10961-0.23282158°9km/h26003m6.5m/s-49.7°C0.7%-1.0hPa2.5V00:00:0000:00:0000:00:00
DM0DOS-112026-09-01 00:46:5353.10970-0.232875km/h25945m6.3m/s-50°C3.2%0hPa2.5V08:30:0001:56:3500:00:00
DJ2DS-152026-09-01 00:46:4453.10969-0.23294185°13km/h25911m6.1m/s-50.0°C3.3%0hPa2.5V00:00:0001:56:2900:00:00
DM0DOS-112026-09-01 00:46:4353.10976-0.23293165°7km/h25887m4.7m/s-50.1°C3.2%0hPa2.5V08:30:0001:56:2500:00:00
DB0UT-72026-09-01 00:46:3453.10973-0.2329752°15km/h25856m6.7m/s-50.4°C3.4%0hPa2.5V00:00:0000:00:0000:00:00
DM0DOS-112026-09-01 00:46:3253.10971-0.23323111°20km/h25832m4.3m/s-50.5°C3.4%0hPa2.5V08:30:0001:56:1500:00:00
DJ2DS-152026-09-01 00:46:2553.10985-0.23357134°9km/h25803m5.3m/s-50.4°C0.7%-1.0hPa2.6V00:00:0000:00:0000:00:00
DJ2DS-152026-09-01 00:46:2453.10987-0.23360123°15km/h25799m4.8m/s-50.4°C3.4%0hPa2.6V00:00:0001:56:0900:00:00
DM0DOS-112026-09-01 00:46:2353.10987-0.2337884°16km/h25776m5.6m/s-50.3°C3.4%0hPa2.6V08:30:0001:56:0500:00:00
DM0DOS-112026-09-01 00:46:1153.10983-0.2344775°9km/h25718m5.3m/s-49.9°C3.3%0hPa2.6V08:30:0001:55:5500:00:00
DB0UT-72026-09-01 00:46:0453.10980-0.2347652°13km/h25684m5.4m/s-49.7°C3.3%0hPa2.6V00:00:0001:55:4900:00:00
DM0DOS-112026-09-01 00:46:0153.10974-0.2349573°15km/h25661m4.8m/s-49.6°C3.2%0hPa2.5V08:30:0001:55:4500:00:00
DM0DOS-112026-09-01 00:45:5153.10958-0.2354556°13km/h25602m6.7m/s-49.6°C3.2%0hPa2.5V08:30:0001:55:3500:00:00
DJ2DS-152026-09-01 00:45:4453.10942-0.2356621°16km/h25568m5.8m/s-49.5°C3.2%0hPa2.5V00:00:0001:55:2908:30:00
DM0DOS-112026-09-01 00:45:4153.10931-0.2357928°11km/h25545m6.3m/s-49.5°C3.1%0hPa2.5V08:30:0001:55:2500:00:00
DB0UT-72026-09-01 00:45:3453.10914-0.2358814°18km/h25509m6.5m/s-49.6°C3.2%0hPa2.5V00:00:0000:00:0000:00:00
DM0DOS-112026-09-01 00:45:2453.10835-0.2360610°22km/h25418m6.3m/s-50.1°C3.2%0hPa2.5V08:30:0001:55:0300:00:00
BIOWL1-152026-09-01 00:45:1753.10813-0.23612356°24km/h25393m5.9m/s0°C0%0hPa2.5V18:12:1501:54:5900:00:00
DJ2DS-152026-09-01 00:45:1353.10802-0.23609351°20km/h25383m5.8m/s-50.3°C0.7%-1.0hPa2.6V00:00:0000:00:0000:00:00
DM0DOS-112026-09-01 00:45:1153.10786-0.2361320°13km/h25358m6.6m/s-50.3°C3.3%0hPa2.6V08:30:0001:54:5300:00:00
BIOWL1-152026-09-01 00:45:0753.10777-0.2361818°11km/h25342m6.5m/s0°C0%0hPa2.5V18:12:1501:54:5000:00:00
DJ2DS-152026-09-01 00:45:0453.10775-0.2361929°11km/h25336m5.8m/s-50.3°C3.3%0hPa2.6V00:00:0001:54:4900:00:00
DM0DOS-112026-09-01 00:45:0153.10754-0.23623359°16km/h25302m6m/s-50.4°C3.3%0hPa2.6V08:30:0001:54:4300:00:00
BIOWL9-152026-09-01 00:44:5453.10743-0.23618316°9km/h25273m4.9m/s0°C-1.0%-1.0hPa2.6V00:00:0000:00:0000:00:00
BIOWL1-152026-09-01 00:44:5253.10724-0.23607245°11km/h25206m6.1m/s0°C0%0hPa2.6V18:12:1501:54:2600:00:00
DM0DOS-112026-09-01 00:44:5153.10737-0.2361323°7km/h25245m5.3m/s-50.6°C3.3%0hPa2.6V08:30:0001:54:3300:00:00
DJ2DS-152026-09-01 00:44:4453.10725-0.23616348°9km/h25224m6.1m/s-50.5°C3.4%0hPa2.5V00:00:0001:54:2900:00:00
DM0DOS-112026-09-01 00:44:4153.10728-0.23594239°9km/h25189m4.7m/s-50.5°C3.4%0hPa2.5V08:30:0001:54:2300:00:00
DJ2DS-152026-09-01 00:44:3653.10731-0.23589197°7km/h25178m5.5m/s-50.4°C0.7%-1.0hPa2.5V00:00:0000:00:0000:00:00
DB0UT-72026-09-01 00:44:3353.10734-0.23586308°7km/h25160m6.2m/s-50.3°C3.3%0hPa2.5V00:00:0000:00:0000:00:00
DM0DOS-112026-09-01 00:44:3153.10731-0.23572264°9km/h25130m6m/s-50.3°C3.3%0hPa2.5V08:30:0001:54:1300:00:00
BIOWL1-152026-09-01 00:44:2753.10731-0.23568266°11km/h25124m6.6m/s0°C0%0hPa2.5V18:12:1501:54:1200:00:00
DJ2DS-152026-09-01 00:44:2453.10733-0.23556235°5km/h25106m5.8m/s-50.2°C3.3%0hPa2.5V00:00:0001:54:0900:00:00
DM0DOS-112026-09-01 00:44:2153.10731-0.23538301°5km/h25072m5.8m/s-50.2°C3.3%0hPa2.5V08:30:0001:54:0300:00:00
BIOWL1-152026-09-01 00:44:1653.10726-0.23522356°4km/h25016m5.6m/s0°C0%0hPa2.5V18:12:1501:53:5300:00:00
DM0DOS-112026-09-01 00:44:1153.10726-0.23522356°4km/h25016m5.6m/s-50.3°C3.3%0hPa2.5V08:30:0001:53:5300:00:00
BIOWL1-152026-09-01 00:44:0453.10725-0.23520193°2km/h24994m4.6m/s0°C0%0hPa2.6V18:12:1501:53:4900:00:00
DJ2DS-152026-09-01 00:44:0453.10725-0.23519193°7km/h24994m4.6m/s-50.2°C3.3%0hPa2.6V00:00:0001:53:4900:00:00
DB0UT-72026-09-01 00:44:0353.10725-0.23519256°7km/h24989m5.0m/s-50.1°C3.3%0hPa2.6V00:00:0001:53:4800:00:00
DM0DOS-112026-09-01 00:44:0153.10718-0.2351958°9km/h24960m6.2m/s-50.1°C3.2%0hPa2.6V08:30:0001:53:4300:00:00
DJ2DS-152026-09-01 00:44:0053.10721-0.23517355°7km/h24972m5.0m/s-50.1°C0.7%-1.0hPa2.6V00:00:0000:00:0000:00:00
DM0DOS-112026-09-01 00:43:5153.10718-0.23520255°9km/h24907m5.1m/s-50.4°C3.3%0hPa2.6V08:30:0001:53:3300:00:00
DJ2DS-152026-09-01 00:43:4453.10716-0.23508309°9km/h24884m5.9m/s-50.4°C3.4%0hPa2.5V00:00:0001:53:2900:00:00
DM0DOS-112026-09-01 00:43:3953.10714-0.23501265°5km/h24852m6.5m/s-50.4°C3.4%0hPa2.5V08:30:0001:53:2300:00:00
DB0UT-72026-09-01 00:43:3353.10712-0.23484307°13km/h24825m4.8m/s-50.4°C3.4%0hPa2.5V00:00:0000:00:0000:00:00
DM0DOS-112026-09-01 00:43:3153.10701-0.23470312°15km/h24797m6.5m/s-50.3°C3.4%0hPa2.5V08:30:0001:53:1300:00:00
DJ2DS-152026-09-01 00:43:2453.10695-0.23444270°13km/h24775m5.6m/s-50.2°C3.3%0hPa2.6V00:00:0001:53:0900:00:00
DM0DOS-112026-09-01 00:43:2153.10688-0.23412329°15km/h24743m6.3m/s-50.2°C3.3%0hPa2.6V08:30:0001:53:0300:00:00
DM0DOS-112026-09-01 00:43:1153.10675-0.23375264°13km/h24688m5m/s-50.2°C3.3%0hPa2.6V08:30:0001:52:5300:00:00
DJ2DS-152026-09-01 00:43:0453.10675-0.23360293°9km/h24667m5.3m/s-50.3°C3.3%0hPa2.6V00:00:0001:52:4900:00:00
DB0UT-72026-09-01 00:43:0353.10673-0.23356296°9km/h24662m5.8m/s-50.4°C3.4%0hPa2.6V00:00:0001:52:4808:30:00
DM0DOS-112026-09-01 00:43:0153.10670-0.2334437°0km/h24636m4.6m/s-50.4°C3.3%0hPa2.6V08:30:0001:52:4300:00:00
DM0DOS-112026-09-01 00:42:5153.10675-0.23313256°18km/h24582m6m/s-50.2°C3.3%0hPa2.5V08:30:0001:52:3300:00:00
DJ2DS-152026-09-01 00:42:4853.10682-0.23291247°7km/h24561m5.7m/s-50.1°C3.3%0hPa2.5V00:00:0001:52:2908:30:00
DM0DOS-112026-09-01 00:42:4653.10689-0.23279225°5km/h24528m6.2m/s-50.3°C3.3%0hPa2.5V08:30:0001:52:2300:00:00
DM0DOS-112026-09-01 00:42:3353.10694-0.23254167°5km/h24469m5.7m/s-50.7°C3.4%0hPa2.5V08:30:0001:52:1200:00:00
DB0UT-72026-09-01 00:42:3353.10689-0.23266260°7km/h24501m4.5m/s-50.4°C3.3%0hPa2.5V00:00:0000:00:0000:00:00
DJ2DS-152026-09-01 00:42:2453.10696-0.23258105°9km/h24452m6.0m/s-50.6°C3.4%0hPa2.5V00:00:0001:52:0900:00:00
DM0DOS-112026-09-01 00:42:2253.10685-0.23265346°13km/h24421m6.1m/s-50.6°C3.4%0hPa2.5V08:30:0001:52:0300:00:00
DJ2DS-152026-09-01 00:42:1253.10673-0.232564km/h24391m4.8m/s-50.6°C0.7%-1.0hPa2.6V00:00:0000:00:0000:00:00
DJ2DS-152026-09-01 00:42:0453.10662-0.23244322°16km/h24350m6.2m/s-50.5°C3.3%0hPa2.6V00:00:0001:51:4900:00:00
DB0UT-72026-09-01 00:42:0353.10658-0.23239312°16km/h24344m5.0m/s-50.5°C3.3%0hPa2.6V00:00:0001:51:4800:00:00
DM0DOS-112026-09-01 00:42:0253.10643-0.23209304°11km/h24318m6m/s-50.8°C3.4%0hPa2.6V08:30:0001:51:4300:00:00
DM0DOS-112026-09-01 00:41:5253.10628-0.23166308°27km/h24265m5.4m/s-50.8°C3.4%0hPa2.5V08:30:0001:51:3300:00:00
DJ2DS-152026-09-01 00:41:4453.10616-0.23133278°13km/h24245m4.6m/s-50.6°C3.4%0hPa2.5V00:00:0001:51:2900:00:00
DM0DOS-112026-09-01 00:41:4253.10612-0.23099290°11km/h24214m6.1m/s-50.6°C3.4%0hPa2.5V08:30:0001:51:2300:00:00
DM0DOS-112026-09-01 00:41:3253.10599-0.23043249°5km/h24161m5.2m/s-50.7°C3.3%0hPa2.6V08:30:0001:51:1300:00:00
DJ2DS-152026-09-01 00:41:2453.10600-0.23032270°9km/h24142m4.6m/s-50.7°C3.3%0hPa2.6V00:00:0001:51:0900:00:00
DM0DOS-112026-09-01 00:41:2253.10590-0.22998291°11km/h24110m5.5m/s-50.9°C3.4%0hPa2.6V08:30:0001:51:0300:00:00
DM0DOS-112026-09-01 00:41:1253.10602-0.22993298°4km/h24058m5.2m/s-51°C3.5%0hPa2.6V08:30:0001:50:5300:00:00
DJ2DS-152026-09-01 00:41:0453.10601-0.22983291°11km/h24036m5.5m/s-50.8°C3.4%0hPa2.5V00:00:0001:50:4900:00:00
DB0UT-72026-09-01 00:41:0353.10600-0.22982339°11km/h24031m5.6m/s-50.8°C3.4%0hPa2.5V00:00:0001:50:4800:00:00
DM0DOS-112026-09-01 00:41:0253.10609-0.22998134°18km/h24003m5.7m/s-50.8°C3.4%0hPa2.5V08:30:0001:50:4300:00:00
DM0DOS-112026-09-01 00:40:5153.10620-0.22969276°13km/h23950m5.5m/s-50.8°C3.4%0hPa2.5V08:30:0001:50:3300:00:00
DJ2DS-152026-09-01 00:40:4453.10622-0.22963139°7km/h23929m5.1m/s-50.7°C3.4%0hPa2.6V00:00:0001:50:2900:00:00
DM0DOS-112026-09-01 00:40:4053.10635-0.22958244°7km/h23895m4.9m/s-50.8°C3.4%0hPa2.5V08:30:0001:50:2300:00:00
DM0DOS-112026-09-01 00:40:3353.10639-0.22949161°7km/h23841m4.8m/s-50.8°C3.4%0hPa2.6V08:30:0001:50:1300:00:00
DB0UT-72026-09-01 00:40:3353.10638-0.22940282°7km/h23869m5.5m/s-50.8°C3.4%0hPa2.6V00:00:0000:00:0000:00:00
DJ2DS-152026-09-01 00:40:2453.10642-0.22942282°7km/h23820m4.8m/s-50.8°C3.4%0hPa2.6V00:00:0001:50:0900:00:00
DM0DOS-112026-09-01 00:40:2153.10639-0.2292936°7km/h23787m4.9m/s-50.8°C3.3%0hPa2.6V08:30:0001:50:0300:00:00
DM0DOS-112026-09-01 00:40:1153.10646-0.22934142°9km/h23733m4.4m/s-51.2°C3.5%0hPa2.5V08:30:0001:49:5300:00:00
DJ2DS-152026-09-01 00:40:0453.10646-0.2295179°9km/h23711m6.5m/s-51.2°C3.4%0hPa2.5V00:00:0001:49:4900:00:00
DM0DOS-112026-09-01 00:40:0353.10645-0.22969142°5km/h23670m5.7m/s-51.1°C3.5%0hPa2.5V08:30:0001:49:4200:00:00
DB0UT-72026-09-01 00:40:0353.10646-0.2295588°15km/h23705m5.6m/s-51.1°C3.5%0hPa2.5V00:00:0001:49:4800:00:00
DM0DOS-112026-09-01 00:39:5153.10649-0.2300169°13km/h23620m5.4m/s-51.4°C3.5%0hPa2.6V08:30:0001:49:3300:00:00
DJ2DS-152026-09-01 00:39:4853.10649-0.2300169°13km/h23621m5.4m/s-51.4°C0.8%-1.0hPa2.6V00:00:0000:00:0000:00:00
DJ2DS-152026-09-01 00:39:4453.10646-0.2301992°16km/h23600m4.2m/s-51.3°C3.5%0hPa2.6V00:00:0001:49:2908:30:00
DM0DOS-112026-09-01 00:39:4053.10645-0.2305186°13km/h23566m5m/s-51.4°C3.6%0hPa2.6V08:30:0001:49:2300:00:00
DM0DOS-112026-09-01 00:39:3053.10642-0.2313398°20km/h23512m5.5m/s-51°C3.5%0hPa2.5V08:30:0001:49:1300:00:00
DJ2DS-152026-09-01 00:39:2453.10642-0.2315551°13km/h23489m5.3m/s-50.9°C3.4%0hPa2.5V00:00:0001:49:0900:00:00
DB0UT-72026-09-01 00:39:2353.10641-0.2315743°11km/h23484m4.8m/s-50.9°C3.5%0hPa2.5V00:00:0000:00:0000:00:00
DM0DOS-112026-09-01 00:39:2053.10640-0.2317893°18km/h23456m4.7m/s-50.9°C3.4%0hPa2.5V08:30:0001:49:0300:00:00
DM0DOS-112026-09-01 00:39:0953.10658-0.23244126°9km/h23403m4.2m/s-50.9°C3.4%0hPa2.5V08:30:0001:48:5300:00:00
DJ2DS-152026-09-01 00:39:0453.10658-0.2326170°15km/h23382m5.0m/s-50.8°C3.4%0hPa2.6V00:00:0001:48:4900:00:00
DM0DOS-112026-09-01 00:38:5953.10662-0.23294120°16km/h23350m4.3m/s-51°C3.4%0hPa2.6V08:30:0001:48:4300:00:00
DM0DOS-112026-09-01 00:38:5353.10653-0.2332536°13km/h23298m4.5m/s-51.2°C3.4%0hPa2.5V08:30:0001:48:3300:00:00
DJ2DS-152026-09-01 00:38:4453.10645-0.2335284°15km/h23276m5.4m/s-51.2°C3.4%0hPa2.5V00:00:0001:48:2900:00:00
DM0DOS-112026-09-01 00:38:4353.10640-0.2338638°15km/h23244m5m/s-51.3°C3.4%0hPa2.5V08:30:0001:48:2300:00:00
DM0DOS-112026-09-01 00:38:3353.10611-0.2343057°15km/h23188m4.9m/s-51.5°C3.5%0hPa2.6V08:30:0001:48:1300:00:00
DB0UT-72026-09-01 00:38:2853.10611-0.2343058°11km/h23189m4.8m/s-51.5°C3.5%0hPa2.6V00:00:0001:48:1300:00:00
DJ2DS-152026-09-01 00:38:2453.10601-0.23438346°15km/h23168m4.4m/s-51.4°C3.5%0hPa2.6V00:00:0001:48:0900:00:00
DM0DOS-112026-09-01 00:38:2353.10574-0.2343713km/h23137m5.6m/s-51.5°C3.6%0hPa2.6V08:30:0001:48:0300:00:00
DM0DOS-112026-09-01 00:38:1253.10551-0.23433354°18km/h23086m4.6m/s-51.3°C3.5%0hPa2.5V08:30:0001:47:5300:00:00
DJ2DS-152026-09-01 00:38:0453.10534-0.23431355°9km/h23065m5.0m/s-51.2°C3.5%0hPa2.5V00:00:0001:47:4900:00:00
DM0DOS-112026-09-01 00:38:0153.10520-0.2343947°5km/h23033m5.2m/s-51.2°C3.5%0hPa2.5V08:30:0001:47:4300:00:00
DM0DOS-112026-09-01 00:37:5153.10503-0.2345028°11km/h22979m6.2m/s-51.1°C3.5%0hPa2.5V08:30:0001:47:3300:00:00
DJ2DS-152026-09-01 00:37:4453.10491-0.2346232°13km/h22958m4.0m/s-51.0°C3.4%0hPa2.6V00:00:0001:47:2900:00:00
BIOWL1-152026-09-01 00:37:4253.10443-0.2351844°5km/h22858m5.4m/s-51.1°C0%0hPa2.6V18:12:1501:47:1000:00:00
DM0DOS-112026-09-01 00:37:4153.10473-0.2347331°15km/h22927m5.3m/s-51.2°C3.4%0hPa2.6V08:30:0001:47:2300:00:00
DB0UT-72026-09-01 00:37:4053.10479-0.2346910°7km/h22939m4.3m/s-51.1°C3.4%0hPa2.5V00:00:0000:00:0008:30:00
BIOWL9-152026-09-01 00:37:3953.10450-0.2350540°9km/h22885m5.9m/s-51.2°C0.8%-1.0hPa2.5V00:00:0000:00:0000:00:00
DM0DOS-112026-09-01 00:37:3153.10447-0.2351050°7km/h22874m6.1m/s-51.1°C3.4%0hPa2.5V08:30:0001:47:1300:00:00
BIOWL1-152026-09-01 00:37:2153.10440-0.23516353°4km/h22831m4.7m/s-51°C0%0hPa2.6V18:12:1501:47:0500:00:00
DM0DOS-112026-09-01 00:37:2153.10438-0.23515345°4km/h22820m4.6m/s-51°C3.4%0hPa2.5V08:30:0001:47:0300:00:00
DM0DOS-112026-09-01 00:37:1153.10429-0.23539156°2km/h22766m6.1m/s-51.3°C3.5%0hPa2.6V08:30:0001:46:5300:00:00
BIOWL1-152026-09-01 00:37:1153.10434-0.23566108°16km/h22725m4.4m/s-51.2°C0.1%0hPa2.5V18:12:1501:46:4500:00:00
BIOWL9-152026-09-01 00:37:0853.10430-0.23539203°4km/h22761m3.9m/s-51.3°C0.8%-1.0hPa2.6V00:00:0000:00:0000:00:00
DB0UT-72026-09-01 00:37:0753.10430-0.23539204°15km/h22761m3.9m/s-51.3°C3.5%0hPa2.6V00:00:0001:46:5200:00:00
DJ2DS-152026-09-01 00:37:0453.10432-0.2354297°15km/h22747m5.0m/s-51.3°C3.5%0hPa2.6V00:00:0001:46:4900:00:00
DM0DOS-112026-09-01 00:37:0153.10436-0.2357998°16km/h22714m5.7m/s-51.2°C3.4%0hPa2.6V08:30:0001:46:4300:00:00
BIOWL1-152026-09-01 00:36:5553.10435-0.2362166°13km/h22666m4.8m/s-51.2°C0%0hPa2.5V18:12:1501:46:3400:00:00
DM0DOS-112026-09-01 00:36:5153.10433-0.2362772°15km/h22661m4.2m/s-51.2°C3.4%0hPa2.5V08:30:0001:46:3300:00:00
DJ2DS-152026-09-01 00:36:4853.10432-0.2363373°16km/h22656m5.5m/s-51.3°C-1.0%-1.0hPa2.5V00:00:0000:00:0000:00:00
DJ2DS-152026-09-01 00:36:4353.10430-0.2366792°20km/h22633m5.1m/s-51.5°C3.4%0hPa2.5V00:00:0001:46:2808:30:00
DM0DOS-112026-09-01 00:36:4153.10422-0.2369930°18km/h22607m6.4m/s-51.5°C3.4%0hPa2.5V08:30:0001:46:2300:00:00
BIOWL1-152026-09-01 00:36:3953.10422-0.2369930°18km/h22607m6.4m/s-51.5°C0.1%0hPa2.5V18:12:1501:46:2300:00:00
BIOWL1-152026-09-01 00:36:2853.10376-0.2380446°22km/h22531m5.7m/s-52°C0.1%0hPa2.6V18:12:1501:46:0800:00:00
DJ2DS-152026-09-01 00:36:2353.10376-0.2380447°22km/h22531m5.6m/s-52.0°C3.6%0hPa2.6V00:00:0001:46:0800:00:00
DM0DOS-112026-09-01 00:36:2153.10357-0.2383846°20km/h22504m5m/s-52.2°C3.6%0hPa2.6V08:30:0001:46:0300:00:00
BIOWL1-152026-09-01 00:36:1753.10330-0.2387029°16km/h22473m4.6m/s-52.4°C0.2%0hPa2.6V18:12:1501:45:5700:00:00
DM0DOS-112026-09-01 00:36:1153.10315-0.2389242°22km/h22453m4.3m/s-52.3°C3.7%0hPa2.5V08:30:0001:45:5300:00:00
BIOWL1-152026-09-01 00:36:0553.10302-0.2390944°22km/h22437m5.1m/s-52.3°C0.2%0hPa2.6V18:12:1501:45:5000:00:00
DJ2DS-152026-09-01 00:36:0353.10294-0.2392452°18km/h22427m4.3m/s-52.2°C3.7%0hPa2.6V00:00:0001:45:4800:00:00
DM0DOS-112026-09-01 00:36:0153.10277-0.2395225°16km/h22401m5.4m/s-52.2°C3.7%0hPa2.6V08:30:0001:45:4300:00:00
BIOWL1-152026-09-01 00:35:5753.10229-0.2400614°15km/h22328m4.4m/s-52°C0.2%0hPa2.5V18:12:1501:45:2900:00:00
DM0DOS-112026-09-01 00:35:5053.10240-0.2399737°15km/h22349m6.2m/s-52°C3.6%0hPa2.6V08:30:0001:45:3300:00:00
DJ2DS-152026-09-01 00:35:4353.10225-0.2400710°13km/h22323m5.4m/s-52.0°C3.6%0hPa2.5V00:00:0001:45:2800:00:00
DM0DOS-112026-09-01 00:35:4253.10211-0.2401744°15km/h22296m5.4m/s-51.9°C3.6%0hPa2.5V08:30:0001:45:2300:00:00
BIOWL1-152026-09-01 00:35:4053.10211-0.2401744°15km/h22296m5.4m/s-51.9°C0.1%0hPa2.5V18:12:1501:45:2300:00:00
DB0UT-72026-09-01 00:35:3753.10209-0.2402257°11km/h22290m5.8m/s-51.8°C3.6%0hPa2.5V00:00:0000:00:0000:00:00
BIOWL9-152026-09-01 00:35:3553.10203-0.2403957°18km/h22274m5.1m/s-51.9°C0.8%-1.0hPa2.5V00:00:0000:00:0000:00:00
DM0DOS-112026-09-01 00:35:3053.10195-0.2406315°5km/h22244m5.7m/s-51.9°C3.6%0hPa2.5V08:30:0001:45:1300:00:00
BIOWL1-152026-09-01 00:35:2753.10167-0.24085322°11km/h22175m4.9m/s-51.9°C0.1%0hPa2.5V18:12:1501:45:0000:00:00
BIOWL1-152026-09-01 00:35:1553.10158-0.24066320°11km/h22148m6.3m/s-51.9°C0.1%0hPa2.6V18:12:1501:44:5500:00:00
DM0DOS-112026-09-01 00:35:1253.10154-0.2406310°5km/h22139m3.8m/s-51.9°C3.6%0hPa2.5V08:30:0001:44:5300:00:00
BIOWL1-152026-09-01 00:35:0353.10159-0.2407298°2km/h22107m5m/s-52.1°C0.2%0hPa2.5V18:12:1501:44:4700:00:00
DM0DOS-112026-09-01 00:35:0053.10161-0.24066236°9km/h22088m4.5m/s-52.1°C3.6%0hPa2.6V08:30:0001:44:4300:00:00
DM0DOS-112026-09-01 00:34:5353.10176-0.24048156°9km/h22036m4.8m/s-51.9°C3.6%0hPa2.6V08:30:0001:44:3300:00:00
BIOWL1-152026-09-01 00:34:5253.10170-0.24047205°9km/h22052m5.1m/s0°C0%0hPa2.5V18:12:1501:44:3600:00:00
DJ2DS-152026-09-01 00:34:4353.10189-0.24054143°9km/h22010m4.8m/s-51.6°C3.5%0hPa2.5V00:00:0001:44:2800:00:00
DM0DOS-112026-09-01 00:34:4253.10197-0.24056167°5km/h21984m5.6m/s-51.6°C3.5%0hPa2.5V08:30:0001:44:2300:00:00
DB0UT-72026-09-01 00:34:3753.10199-0.24057159°13km/h21979m4.5m/s-51.6°C3.5%0hPa2.5V00:00:0000:00:0000:00:00
DM0DOS-112026-09-01 00:34:2953.10220-0.24064146°15km/h21932m5.3m/s-51.7°C3.5%0hPa2.5V08:30:0001:44:1300:00:00
DM0DOS-112026-09-01 00:34:2453.10239-0.24099137°16km/h21879m5.4m/s-52°C3.6%0hPa2.6V08:30:0001:44:0300:00:00
DJ2DS-152026-09-01 00:34:2253.10232-0.24083137°18km/h21900m4.5m/s-51.9°C3.6%0hPa2.5V00:00:0001:44:0700:00:00
DM0DOS-112026-09-01 00:34:1353.10269-0.2416598°18km/h21826m5.3m/s-52.1°C3.6%0hPa2.5V08:30:0001:43:5300:00:00
DB0UT-72026-09-01 00:34:0753.10269-0.2417298°20km/h21821m4.4m/s-52.1°C3.6%0hPa2.6V00:00:0001:43:5200:00:00
DM0DOS-112026-09-01 00:34:0353.10277-0.2423497°16km/h21773m5.9m/s-52°C3.6%0hPa2.6V08:30:0001:43:4300:00:00
DJ2DS-152026-09-01 00:34:0253.10273-0.2420898°20km/h21794m4.1m/s-52.0°C3.6%0hPa2.6V00:00:0001:43:4700:00:00
DM0DOS-112026-09-01 00:33:5353.10285-0.24323117°20km/h21720m4.4m/s-52°C3.6%0hPa2.6V08:30:0001:43:3300:00:00
DM0DOS-112026-09-01 00:33:4353.10299-0.2441786°26km/h21668m5.4m/s-52.1°C3.6%0hPa2.5V08:30:0001:43:2300:00:00
DJ2DS-152026-09-01 00:33:4253.10296-0.24378103°27km/h21690m6.2m/s-52.0°C3.6%0hPa2.6V00:00:0001:43:2708:30:00
DB0UT-72026-09-01 00:33:3753.10299-0.2442788°31km/h21663m5.0m/s0°C0%0hPa2.6V00:00:0000:00:0000:00:00
DM0DOS-112026-09-01 00:33:3353.10306-0.2452999°33km/h21615m5.8m/s-52.1°C3.6%0hPa2.6V08:30:0001:43:1300:00:00
DM0DOS-112026-09-01 00:33:2353.10305-0.2466087°33km/h21562m4.4m/s-52.4°C3.8%0hPa2.5V08:30:0001:43:0300:00:00
DJ2DS-152026-09-01 00:33:2253.10308-0.2460687°35km/h21584m5.9m/s-52.2°C3.7%0hPa2.5V00:00:0001:43:0700:00:00
DM0DOS-112026-09-01 00:33:1353.10303-0.2480777°35km/h21511m4.3m/s-52.3°C3.7%0hPa2.5V08:30:0001:42:5300:00:00
DB0UT-72026-09-01 00:33:0753.10300-0.2482174°35km/h21505m6.3m/s0°C0%0hPa2.6V00:00:0001:42:5208:30:00
DM0DOS-112026-09-01 00:33:0353.10278-0.2494283°33km/h21459m5.7m/s-52°C3.6%0hPa2.6V08:30:0001:42:4300:00:00
BIOWL1-152026-09-01 00:32:5553.10275-0.2498683°35km/h21443m6.1m/s-52°C0.1%0hPa2.5V18:12:1501:42:4000:00:00
DM0DOS-112026-09-01 00:32:5353.10256-0.2507361°27km/h21405m4.2m/s-51.9°C3.6%0hPa2.5V08:30:0001:42:3300:00:00
BIOWL1-152026-09-01 00:32:4453.10244-0.2511871°27km/h21385m6m/s-51.8°C0.2%0hPa2.6V18:12:1501:42:2900:00:00
DM0DOS-112026-09-01 00:32:4353.10228-0.2518665°29km/h21354m6.1m/s-51.8°C3.5%0hPa2.6V08:30:0001:42:2300:00:00
DJ2DS-152026-09-01 00:32:4253.10239-0.2513971°29km/h21375m4.0m/s-51.7°C3.6%0hPa2.5V00:00:0001:42:2700:00:00
BIOWL1-152026-09-01 00:32:3453.10158-0.2536452°22km/h21261m5.6m/s-52.1°C0.2%0hPa2.6V18:12:1501:42:0500:00:00
DM0DOS-112026-09-01 00:32:3353.10189-0.2529256°29km/h21302m4.8m/s-51.7°C3.5%0hPa2.6V08:30:0001:42:1300:00:00
BIOWL9-152026-09-01 00:32:2853.10189-0.2529256°29km/h21302m4.8m/s-51.7°C0.9%-1.0hPa2.6V00:00:0000:00:0000:00:00
DM0DOS-112026-09-01 00:32:2253.10151-0.2537749°22km/h21250m5.3m/s-52.2°C3.6%0hPa2.6V08:30:0001:42:0300:00:00
BIOWL1-152026-09-01 00:32:1853.10111-0.2543132°26km/h21209m5m/s-52.5°C0.2%0hPa2.5V18:12:1501:41:5500:00:00
DM0DOS-112026-09-01 00:32:0953.10094-0.2544319°27km/h21194m5.2m/s-52.5°C3.7%0hPa2.6V08:30:0001:41:5200:00:00
BIOWL1-152026-09-01 00:32:0553.10081-0.2545224°29km/h21184m4.3m/s-52.5°C0.2%0hPa2.5V18:12:1501:41:5000:00:00
BIOWL1-152026-09-01 00:31:5753.10001-0.2550422°16km/h21106m4.2m/s-52.1°C0.3%0hPa2.5V18:12:1501:41:3500:00:00
DM0DOS-112026-09-01 00:31:4853.09991-0.2551540°15km/h21091m4.2m/s-52°C3.7%0hPa2.6V08:30:0001:41:3200:00:00
BIOWL1-152026-09-01 00:31:4353.09970-0.2553740°20km/h21060m5.5m/s-51.7°C0.2%0hPa2.6V18:12:1501:41:2600:00:00
DJ2DS-152026-09-01 00:31:4153.09970-0.2553741°16km/h21060m5.4m/s-51.7°C3.6%0hPa2.6V00:00:0001:41:2600:00:00
DM0DOS-112026-09-01 00:31:3853.09958-0.2555762°16km/h21039m6.4m/s-51.5°C3.6%0hPa2.5V08:30:0001:41:2200:00:00
BIOWL1-152026-09-01 00:31:3053.09947-0.2559470°16km/h21000m4.4m/s-51.2°C0.1%0hPa2.5V18:12:1501:41:1500:00:00
DM0DOS-112026-09-01 00:31:2853.09941-0.2561145°15km/h20985m4.6m/s-51.1°C3.4%0hPa2.6V08:30:0001:41:1200:00:00
BIOWL1-152026-09-01 00:31:1953.09918-0.2568667°20km/h20920m5.6m/s-51.2°C0%0hPa2.6V18:12:1501:41:0000:00:00
DM0DOS-112026-09-01 00:31:0853.09910-0.2575589°26km/h20878m4.6m/s-51.6°C3.5%0hPa2.6V08:30:0001:40:5200:00:00
BIOWL1-152026-09-01 00:31:0553.09911-0.2581797°29km/h20847m4.1m/s-52°C0.2%0hPa2.6V18:12:1501:40:4600:00:00
DM0DOS-112026-09-01 00:31:0353.09917-0.25864104°31km/h20827m5.8m/s-52.1°C3.6%0hPa2.5V08:30:0001:40:4200:00:00
BIOWL1-152026-09-01 00:30:5653.09917-0.2598877°37km/h20780m5.7m/s-51.9°C0.2%0hPa2.6V18:12:1501:40:3300:00:00
DM0DOS-112026-09-01 00:30:5253.09915-0.2600274°35km/h20774m5.5m/s-51.9°C3.6%0hPa2.5V08:30:0001:40:3200:00:00
DM0DOS-112026-09-01 00:30:4253.09905-0.2613776°33km/h20722m4.7m/s-51.8°C3.7%0hPa2.6V08:30:0001:40:2200:00:00
BIOWL1-152026-09-01 00:30:3753.09901-0.2616275°29km/h20712m4.7m/s-51.7°C0.2%0hPa2.7V18:12:1501:40:2000:00:00
DM0DOS-112026-09-01 00:30:3253.09887-0.2626475°33km/h20671m4.6m/s-51.5°C3.6%0hPa2.6V08:30:0001:40:1200:00:00
BIOWL1-152026-09-01 00:30:2953.09868-0.2636277°29km/h20629m4.6m/s-51.4°C0.2%0hPa2.5V18:12:1501:40:0400:00:00
DM0DOS-112026-09-01 00:30:2253.09865-0.2638680°31km/h20619m4.2m/s-51.4°C3.5%0hPa2.5V08:30:0001:40:0200:00:00
BIOWL1-152026-09-01 00:30:1853.09841-0.2649863°27km/h20570m5.5m/s-51.3°C0.1%0hPa2.7V18:12:1501:39:5200:00:00
DM0DOS-112026-09-01 00:30:0153.09808-0.2658746°31km/h20524m6.2m/s-51.2°C3.4%0hPa2.5V08:30:0001:39:4300:00:00
BIOWL1-152026-09-01 00:29:5853.09760-0.2667649°27km/h20473m4m/s-51.6°C0.1%0hPa2.6V18:12:1501:39:3300:00:00
DM0DOS-112026-09-01 00:29:5353.09760-0.2667648°27km/h20473m4m/s-51.6°C3.6%0hPa2.6V08:30:0001:39:3300:00:00
DM0DOS-112026-09-01 00:29:4353.09702-0.2674147°22km/h20422m5.6m/s-51.5°C3.6%0hPa2.6V08:30:0001:39:2300:00:00
BIOWL1-152026-09-01 00:29:3753.09696-0.2675454°16km/h20411m5.8m/s-51.4°C0.2%0hPa2.5V18:12:1501:39:2100:00:00
DM0DOS-112026-09-01 00:29:2853.09646-0.2681648°16km/h20343m5.4m/s-51.1°C3.5%0hPa2.5V08:30:0001:39:0800:00:00
BIOWL1-152026-09-01 00:29:2753.09649-0.2681045°20km/h20349m6.2m/s-51.1°C0.1%0hPa2.6V18:12:1501:39:0900:00:00
BIOWL1-152026-09-01 00:29:1553.09612-0.2689265°18km/h20269m5.7m/s-51.1°C0.1%0hPa2.5V18:12:1501:38:5400:00:00
BIOWL1-152026-09-01 00:29:0553.09601-0.2695461°15km/h20216m5.4m/s-51.1°C0.1%0hPa2.6V18:12:1501:38:4400:00:00
BIOWL1-152026-09-01 00:28:5753.09592-0.2697959°15km/h20195m4.9m/s0°C0%0hPa2.5V18:12:1501:38:4000:00:00
BIOWL1-152026-09-01 00:28:4253.09579-0.2707864°24km/h20127m6m/s0°C0%0hPa2.7V18:12:1501:38:2700:00:00
BIOWL1-152026-09-01 00:28:3053.09547-0.2722967°27km/h20052m4.1m/s0°C0%0hPa2.5V18:12:1501:38:1200:00:00
BIOWL1-152026-09-01 00:28:1853.09510-0.2736469°26km/h19985m4.5m/s0°C0%0hPa2.6V18:12:1501:37:5900:00:00
BIOWL1-152026-09-01 00:27:5253.09437-0.2753928°27km/h19860m5.3m/s0°C0%0hPa2.6V18:12:1501:37:3500:00:00
DJ2DS-152026-09-01 00:27:4253.09404-0.2759759°26km/h19814m5.6m/s-50.3°C3.4%0hPa2.7V00:00:0001:37:2608:30:00
DJ2DS-152026-09-01 00:27:2153.09324-0.2776955°27km/h19708m4.9m/s-49.7°C3.3%0hPa2.6V00:00:0001:37:0600:00:00
DM0DOS-112026-09-01 00:27:0453.09271-0.2798575°26km/h19595m5.2m/s-50.2°C3.3%0hPa2.6V08:30:0001:36:4500:00:00
DJ2DS-152026-09-01 00:27:0153.09273-0.2797575°29km/h19601m5.6m/s-50.1°C3.3%0hPa2.7V00:00:0001:36:4600:00:00
DM0DOS-112026-09-01 00:26:5453.09245-0.2808968°31km/h19543m5.7m/s-49.9°C3.2%0hPa2.7V08:30:0001:36:3500:00:00
DM0DOS-112026-09-01 00:26:4453.09214-0.2821759°33km/h19493m4.6m/s-50.6°C3.4%0hPa2.6V08:30:0001:36:2500:00:00
BIOWL1-152026-09-01 00:26:3553.09156-0.2840157°33km/h19430m4.9m/s0°C0%0hPa2.6V18:12:1501:36:1200:00:00
DM0DOS-112026-09-01 00:26:3353.09166-0.2837855°35km/h19441m5.2m/s-50.6°C3.4%0hPa2.7V08:30:0001:36:1400:00:00
DM0DOS-112026-09-01 00:26:2353.09119-0.2850062°37km/h19394m4.9m/s-50.3°C3.4%0hPa2.6V08:30:0001:36:0400:00:00
DJ2DS-152026-09-01 00:26:2153.09127-0.2847266°33km/h19403m3.4m/s-50.3°C3.4%0hPa2.7V00:00:0001:36:0600:00:00
DM0DOS-112026-09-01 00:26:1353.09072-0.2861551°33km/h19345m5.5m/s-50°C3.3%0hPa2.7V08:30:0001:35:5400:00:00
BIOWL1-152026-09-01 00:26:0953.09073-0.2861552°33km/h19345m5.5m/s0°C0%0hPa2.7V18:12:1501:35:5400:00:00
DM0DOS-112026-09-01 00:26:0353.09030-0.2871448°27km/h19300m3.9m/s-50.1°C3.4%0hPa2.6V08:30:0001:35:4400:00:00
DJ2DS-152026-09-01 00:26:0153.09038-0.2869749°27km/h19310m5.4m/s-50.0°C3.3%0hPa2.7V00:00:0001:35:4600:00:00
DM0DOS-112026-09-01 00:25:5253.08987-0.2881741°27km/h19257m4.6m/s-50.2°C3.4%0hPa2.7V08:30:0001:35:3400:00:00
DM0DOS-112026-09-01 00:25:4253.08956-0.2888641°18km/h19210m4.7m/s-50.1°C3.4%0hPa2.6V08:30:0001:35:2400:00:00
DJ2DS-152026-09-01 00:25:4153.08960-0.2887576°20km/h19220m3.4m/s-50.1°C3.3%0hPa2.7V00:00:0001:35:2600:00:00
DM0DOS-112026-09-01 00:25:3453.08918-0.2893566°16km/h19165m3.9m/s-50°C3.4%0hPa2.6V08:30:0001:35:1400:00:00
DM0DOS-112026-09-01 00:25:2453.08883-0.2901754°24km/h19117m5.1m/s-49.8°C3.3%0hPa2.7V08:30:0001:35:0400:00:00
DJ2DS-152026-09-01 00:25:2153.08891-0.2899853°26km/h19127m4.1m/s-49.9°C3.4%0hPa2.6V00:00:0001:35:0600:00:00
DM0DOS-112026-09-01 00:25:1453.08850-0.2910346°24km/h19070m4.6m/s-49.6°C3.3%0hPa2.6V08:30:0001:34:5400:00:00
DM0DOS-112026-09-01 00:25:0453.08815-0.2918659°22km/h19023m5.6m/s-49.4°C3.3%0hPa2.7V08:30:0001:34:4400:00:00
DJ2DS-152026-09-01 00:25:0153.08821-0.2916863°22km/h19033m4.2m/s-49.4°C3.3%0hPa2.6V00:00:0001:34:4600:00:00
DM0DOS-112026-09-01 00:24:5353.08787-0.2926252°22km/h18977m4.5m/s-49.1°C3.2%0hPa2.6V08:30:0001:34:3400:00:00
DM0DOS-112026-09-01 00:24:4353.08758-0.2933455°22km/h18931m4.5m/s-49°C3.2%0hPa2.7V08:30:0001:34:2400:00:00
DJ2DS-152026-09-01 00:24:4053.08761-0.2932754°18km/h18936m4.8m/s-48.9°C3.2%0hPa2.6V00:00:0001:34:2508:30:00
DM0DOS-112026-09-01 00:24:3353.08738-0.2939072°16km/h18886m4m/s-49.1°C3.2%0hPa2.6V08:30:0001:34:1400:00:00
DM0DOS-112026-09-01 00:24:2353.08715-0.2946072°20km/h18840m5.3m/s-48.9°C3.1%0hPa2.6V08:30:0001:34:0400:00:00
DJ2DS-152026-09-01 00:24:2053.08717-0.2945165°27km/h18845m4.7m/s-48.9°C3.1%0hPa2.7V00:00:0001:34:0500:00:00
DM0DOS-112026-09-01 00:24:1353.08698-0.2956270°26km/h18792m3.8m/s-49.4°C3.1%0hPa2.7V08:30:0001:33:5400:00:00
DM0DOS-112026-09-01 00:24:0353.08685-0.2969878°38km/h18747m3.3m/s-49.5°C3.2%0hPa2.6V08:30:0001:33:4400:00:00
DJ2DS-152026-09-01 00:24:0053.08686-0.2968283°35km/h18752m5.0m/s-49.4°C3.1%0hPa2.7V00:00:0001:33:4500:00:00
DM0DOS-112026-09-01 00:23:5353.08661-0.2983467°33km/h18703m4.7m/s-50°C3.3%0hPa2.7V08:30:0001:33:3400:00:00
DM0DOS-112026-09-01 00:23:4253.08634-0.2998075°40km/h18660m4.8m/s-50°C3.3%0hPa2.6V08:30:0001:33:2400:00:00
DJ2DS-152026-09-01 00:23:4053.08636-0.2996475°37km/h18664m4.3m/s-49.9°C3.3%0hPa2.6V00:00:0001:33:2500:00:00
DM0DOS-112026-09-01 00:23:3253.08617-0.3013574°37km/h18616m4.5m/s-50.4°C3.4%0hPa2.7V08:30:0001:33:1400:00:00
DJ2DS-152026-09-01 00:23:2053.08591-0.3026470°31km/h18575m4.8m/s-50.2°C3.3%0hPa2.6V00:00:0001:33:0500:00:00
DM0DOS-112026-09-01 00:23:0553.08564-0.3047880°29km/h18503m5.3m/s-50.5°C3.3%0hPa2.6V08:30:0001:32:4900:00:00
DJ2DS-152026-09-01 00:23:0053.08562-0.3052386°33km/h18485m3.9m/s-50.4°C3.4%0hPa2.7V00:00:0001:32:4500:00:00
DM0DOS-112026-09-01 00:22:5953.08568-0.3060895°37km/h18457m3.7m/s-50.4°C3.4%0hPa2.7V08:30:0001:32:3900:00:00
DM0DOS-112026-09-01 00:22:4153.08568-0.3081492°29km/h18391m4.5m/s-50.5°C3.3%0hPa2.7V08:30:0001:32:2400:00:00
DJ2DS-152026-09-01 00:22:4053.08568-0.3080287°35km/h18395m3.8m/s-50.4°C3.3%0hPa2.7V00:00:0001:32:2500:00:00
DJ2DS-152026-09-01 00:22:2053.08564-0.3109280°35km/h18299m4.6m/s0°C0%0hPa2.7V00:00:0001:32:0500:00:00
DM0DOS-112026-09-01 00:22:1653.08549-0.3122372°35km/h18254m5.5m/s-51°C3.4%0hPa2.7V08:30:0001:31:5600:00:00
DM0DOS-112026-09-01 00:22:0653.08526-0.3135670°35km/h18203m5.3m/s-51°C3.4%0hPa2.6V08:30:0001:31:4600:00:00
DJ2DS-152026-09-01 00:22:0053.08523-0.3137074°40km/h18198m4.5m/s0°C0%0hPa2.7V00:00:0001:31:4500:00:00
DM0DOS-112026-09-01 00:21:5553.08507-0.3150680°37km/h18152m6m/s-51.2°C3.5%0hPa2.7V08:30:0001:31:3600:00:00
DM0DOS-112026-09-01 00:21:4553.08486-0.3168070°42km/h18101m6.1m/s-51°C3.4%0hPa2.6V08:30:0001:31:2600:00:00
DJ2DS-152026-09-01 00:21:4053.08482-0.3169770°42km/h18096m5.2m/s0°C0%0hPa2.6V00:00:0001:31:2500:00:00
DM0DOS-112026-09-01 00:21:3553.08452-0.3184672°40km/h18051m4.2m/s-51.1°C3.5%0hPa2.6V08:30:0001:31:1600:00:00
DM0DOS-112026-09-01 00:21:2053.08393-0.3205564°44km/h17987m5.3m/s-51.3°C3.5%0hPa2.6V08:30:0001:31:0300:00:00
DM0DOS-112026-09-01 00:21:1553.08355-0.3219166°33km/h17936m5.1m/s-51°C3.5%0hPa2.7V08:30:0001:30:5300:00:00
DM0DOS-112026-09-01 00:21:0153.08334-0.3233878°33km/h17885m4.5m/s-51°C3.5%0hPa2.6V08:30:0001:30:4300:00:00
DM0DOS-112026-09-01 00:20:4253.08327-0.3260894°31km/h17784m4.7m/s-50.9°C3.4%0hPa2.6V08:30:0001:30:2200:00:00
DM0DOS-112026-09-01 00:20:3053.08329-0.3274890°40km/h17738m3.6m/s-50.6°C3.5%0hPa2.6V08:30:0001:30:1200:00:00
DM0DOS-112026-09-01 00:20:1953.08324-0.3291792°42km/h17691m4.2m/s-50.8°C3.4%0hPa2.7V08:30:0001:30:0200:00:00
DM0DOS-112026-09-01 00:20:1153.08327-0.3310388°49km/h17644m4.3m/s-50.9°C3.5%0hPa2.6V08:30:0001:29:5200:00:00
DM0DOS-112026-09-01 00:19:5953.08324-0.3329486°46km/h17600m5.2m/s-50.9°C3.5%0hPa2.7V08:30:0001:29:4200:00:00
DM0DOS-112026-09-01 00:19:5153.08310-0.3347974°40km/h17556m4m/s-50.6°C3.5%0hPa2.6V08:30:0001:29:3200:00:00
DM0DOS-112026-09-01 00:19:4053.08290-0.3364278°44km/h17514m4.3m/s-50.2°C3.4%0hPa2.6V08:30:0001:29:2200:00:00
DM0DOS-112026-09-01 00:19:2853.08268-0.3381678°40km/h17470m5.1m/s-50°C3.3%0hPa2.7V08:30:0001:29:1200:00:00
DM0DOS-112026-09-01 00:19:1853.08244-0.3397679°38km/h17425m3.2m/s-49.8°C3.3%0hPa2.7V08:30:0001:29:0200:00:00
DM0DOS-112026-09-01 00:19:1153.08217-0.3413073°38km/h17382m4.3m/s-49.8°C3.2%0hPa2.6V08:30:0001:28:5200:00:00
DM0DOS-112026-09-01 00:19:0153.08179-0.3430770°42km/h17336m4.2m/s-50.5°C0%0hPa2.7V08:30:0001:28:4200:00:00
DM0DOS-112026-09-01 00:18:5153.08147-0.3447167°44km/h17293m3.9m/s-50.6°C0%0hPa2.6V08:30:0001:28:3200:00:00
DM0DOS-112026-09-01 00:18:4053.08105-0.3464167°47km/h17249m4.1m/s0°C0%0hPa2.7V00:00:0001:28:2200:00:00
DM0DOS-112026-09-01 00:18:3053.08056-0.3481258°49km/h17206m4m/s0°C0%0hPa2.7V00:00:0001:28:1200:00:00
DM0DOS-112026-09-01 00:18:0853.07929-0.3515259°37km/h17110m4.3m/s0°C0%0hPa2.6V00:00:0001:27:5000:00:00
DM0DOS-112026-09-01 00:15:2553.07584-0.3774573°55km/h16342m4.6m/s0°C0%0hPa2.7V00:00:0001:25:0500:00:00
DM0DOS-112026-09-01 00:15:0853.07518-0.3809972°51km/h16267m4.8m/s0°C0%0hPa2.6V00:00:0001:24:4800:00:00
DM0DOS-112026-09-01 00:14:5753.07488-0.3832682°47km/h16218m5.5m/s0°C0%0hPa2.7V00:00:0001:24:3700:00:00
DM0DOS-112026-09-01 00:14:4653.07475-0.3855492°46km/h16168m4.5m/s0°C0%0hPa2.7V00:00:0001:24:2600:00:00
DM0DOS-112026-09-01 00:14:3453.07476-0.3875192°49km/h16124m5.4m/s0°C0%0hPa2.6V00:00:0001:24:1600:00:00
DM0DOS-112026-09-01 00:13:5953.07445-0.3951383°47km/h15969m4.1m/s0°C0%0hPa2.7V00:00:0001:23:4100:00:00


GPX KML Map

© wettersonde.net (DO2JMG) - 2026  -  -